sensor_id;sensor_type;location;lat;lon;timestamp;P1;durP1;ratioP1;P2;durP2;ratioP2
7193;SDS011;3638;48.820;9.244;2022-08-21T00:00:19;4.27;;;3.80;;
7193;SDS011;3638;48.820;9.244;2022-08-21T00:02:51;5.10;;;3.80;;
7193;SDS011;3638;48.820;9.244;2022-08-21T00:05:21;4.10;;;3.57;;
7193;SDS011;3638;48.820;9.244;2022-08-21T00:07:49;4.27;;;3.87;;
7193;SDS011;3638;48.820;9.244;2022-08-21T00:10:17;4.50;;;3.73;;
7193;SDS011;3638;48.820;9.244;2022-08-21T00:12:44;4.50;;;3.80;;
7193;SDS011;3638;48.820;9.244;2022-08-21T00:15:12;6.27;;;3.90;;
7193;SDS011;3638;48.820;9.244;2022-08-21T00:17:43;4.90;;;3.80;;
7193;SDS011;3638;48.820;9.244;2022-08-21T00:20:12;4.43;;;3.83;;
7193;SDS011;3638;48.820;9.244;2022-08-21T00:22:41;4.90;;;3.90;;
7193;SDS011;3638;48.820;9.244;2022-08-21T00:25:09;5.57;;;3.90;;
7193;SDS011;3638;48.820;9.244;2022-08-21T00:27:36;5.47;;;3.83;;
7193;SDS011;3638;48.820;9.244;2022-08-21T00:30:05;4.57;;;3.87;;
7193;SDS011;3638;48.820;9.244;2022-08-21T00:32:34;5.37;;;4.07;;
7193;SDS011;3638;48.820;9.244;2022-08-21T00:35:04;5.63;;;3.93;;
7193;SDS011;3638;48.820;9.244;2022-08-21T00:37:34;6.93;;;4.17;;
7193;SDS011;3638;48.820;9.244;2022-08-21T00:40:01;5.70;;;4.00;;
7193;SDS011;3638;48.820;9.244;2022-08-21T00:42:28;6.43;;;4.60;;
7193;SDS011;3638;48.820;9.244;2022-08-21T00:44:56;5.00;;;3.90;;
7193;SDS011;3638;48.820;9.244;2022-08-21T00:47:23;5.73;;;4.30;;
7193;SDS011;3638;48.820;9.244;2022-08-21T00:49:50;7.93;;;4.33;;
7193;SDS011;3638;48.820;9.244;2022-08-21T00:52:19;6.43;;;4.47;;
7193;SDS011;3638;48.820;9.244;2022-08-21T00:54:52;5.97;;;4.00;;
7193;SDS011;3638;48.820;9.244;2022-08-21T00:57:25;5.87;;;3.93;;
7193;SDS011;3638;48.820;9.244;2022-08-21T00:59:56;5.47;;;4.03;;
7193;SDS011;3638;48.820;9.244;2022-08-21T01:02:26;6.73;;;4.30;;
7193;SDS011;3638;48.820;9.244;2022-08-21T01:04:53;4.80;;;4.30;;
7193;SDS011;3638;48.820;9.244;2022-08-21T01:07:20;5.00;;;4.50;;
7193;SDS011;3638;48.820;9.244;2022-08-21T01:09:47;5.00;;;4.37;;
7193;SDS011;3638;48.820;9.244;2022-08-21T01:12:16;6.57;;;4.43;;
7193;SDS011;3638;48.820;9.244;2022-08-21T01:14:43;6.30;;;4.70;;
7193;SDS011;3638;48.820;9.244;2022-08-21T01:17:11;5.93;;;4.57;;
7193;SDS011;3638;48.820;9.244;2022-08-21T01:19:41;6.37;;;4.47;;
7193;SDS011;3638;48.820;9.244;2022-08-21T01:22:10;6.10;;;3.90;;
7193;SDS011;3638;48.820;9.244;2022-08-21T01:24:37;5.87;;;4.23;;
7193;SDS011;3638;48.820;9.244;2022-08-21T01:27:04;4.77;;;4.30;;
7193;SDS011;3638;48.820;9.244;2022-08-21T01:29:32;4.97;;;4.10;;
7193;SDS011;3638;48.820;9.244;2022-08-21T01:32:06;4.40;;;4.00;;
7193;SDS011;3638;48.820;9.244;2022-08-21T01:34:38;4.93;;;4.40;;
7193;SDS011;3638;48.820;9.244;2022-08-21T01:37:07;4.70;;;4.23;;
7193;SDS011;3638;48.820;9.244;2022-08-21T01:39:37;4.43;;;4.03;;
7193;SDS011;3638;48.820;9.244;2022-08-21T01:42:04;4.60;;;4.07;;
7193;SDS011;3638;48.820;9.244;2022-08-21T01:44:32;4.50;;;4.10;;
7193;SDS011;3638;48.820;9.244;2022-08-21T01:47:01;7.13;;;4.53;;
7193;SDS011;3638;48.820;9.244;2022-08-21T01:49:32;5.60;;;4.40;;
7193;SDS011;3638;48.820;9.244;2022-08-21T01:51:59;7.73;;;4.13;;
7193;SDS011;3638;48.820;9.244;2022-08-21T01:54:28;5.33;;;3.70;;
7193;SDS011;3638;48.820;9.244;2022-08-21T01:56:55;4.23;;;3.83;;
7193;SDS011;3638;48.820;9.244;2022-08-21T01:59:23;7.87;;;4.27;;
7193;SDS011;3638;48.820;9.244;2022-08-21T02:01:51;8.30;;;4.60;;
7193;SDS011;3638;48.820;9.244;2022-08-21T02:04:19;5.40;;;4.40;;
7193;SDS011;3638;48.820;9.244;2022-08-21T02:06:46;5.07;;;4.57;;
7193;SDS011;3638;48.820;9.244;2022-08-21T02:09:14;5.43;;;4.20;;
7193;SDS011;3638;48.820;9.244;2022-08-21T02:11:43;5.73;;;5.07;;
7193;SDS011;3638;48.820;9.244;2022-08-21T02:14:10;5.20;;;4.70;;
7193;SDS011;3638;48.820;9.244;2022-08-21T02:16:39;5.70;;;4.80;;
7193;SDS011;3638;48.820;9.244;2022-08-21T02:19:07;6.03;;;4.63;;
7193;SDS011;3638;48.820;9.244;2022-08-21T02:21:35;7.73;;;5.43;;
7193;SDS011;3638;48.820;9.244;2022-08-21T02:24:02;7.37;;;5.30;;
7193;SDS011;3638;48.820;9.244;2022-08-21T02:26:29;5.30;;;4.63;;
7193;SDS011;3638;48.820;9.244;2022-08-21T02:28:58;7.93;;;5.60;;
7193;SDS011;3638;48.820;9.244;2022-08-21T02:31:24;8.63;;;5.23;;
7193;SDS011;3638;48.820;9.244;2022-08-21T02:33:51;5.70;;;5.03;;
7193;SDS011;3638;48.820;9.244;2022-08-21T02:36:18;5.73;;;4.60;;
7193;SDS011;3638;48.820;9.244;2022-08-21T02:38:45;6.03;;;4.60;;
7193;SDS011;3638;48.820;9.244;2022-08-21T02:41:13;5.33;;;4.83;;
7193;SDS011;3638;48.820;9.244;2022-08-21T02:43:43;5.33;;;4.83;;
7193;SDS011;3638;48.820;9.244;2022-08-21T02:46:13;5.03;;;4.40;;
7193;SDS011;3638;48.820;9.244;2022-08-21T02:48:43;6.83;;;4.63;;
7193;SDS011;3638;48.820;9.244;2022-08-21T02:51:12;4.77;;;4.27;;
7193;SDS011;3638;48.820;9.244;2022-08-21T02:53:43;7.17;;;4.97;;
7193;SDS011;3638;48.820;9.244;2022-08-21T02:56:12;4.93;;;4.43;;
7193;SDS011;3638;48.820;9.244;2022-08-21T02:58:44;5.17;;;4.67;;
7193;SDS011;3638;48.820;9.244;2022-08-21T03:01:15;6.33;;;4.70;;
7193;SDS011;3638;48.820;9.244;2022-08-21T03:03:43;5.00;;;4.57;;
7193;SDS011;3638;48.820;9.244;2022-08-21T03:06:13;6.10;;;4.43;;
7193;SDS011;3638;48.820;9.244;2022-08-21T03:08:42;5.90;;;4.20;;
7193;SDS011;3638;48.820;9.244;2022-08-21T03:11:11;4.60;;;4.20;;
7193;SDS011;3638;48.820;9.244;2022-08-21T03:13:39;5.47;;;4.20;;
7193;SDS011;3638;48.820;9.244;2022-08-21T03:16:06;6.90;;;4.17;;
7193;SDS011;3638;48.820;9.244;2022-08-21T03:18:35;4.80;;;4.40;;
7193;SDS011;3638;48.820;9.244;2022-08-21T03:21:02;4.60;;;4.20;;
7193;SDS011;3638;48.820;9.244;2022-08-21T03:23:30;5.00;;;4.50;;
7193;SDS011;3638;48.820;9.244;2022-08-21T03:25:58;4.73;;;4.30;;
7193;SDS011;3638;48.820;9.244;2022-08-21T03:28:24;6.37;;;4.87;;
7193;SDS011;3638;48.820;9.244;2022-08-21T03:30:52;6.93;;;4.70;;
7193;SDS011;3638;48.820;9.244;2022-08-21T03:33:19;5.53;;;4.00;;
7193;SDS011;3638;48.820;9.244;2022-08-21T03:35:49;5.43;;;4.20;;
7193;SDS011;3638;48.820;9.244;2022-08-21T03:38:23;5.67;;;4.80;;
7193;SDS011;3638;48.820;9.244;2022-08-21T03:40:50;6.37;;;4.53;;
7193;SDS011;3638;48.820;9.244;2022-08-21T03:43:17;4.40;;;4.00;;
7193;SDS011;3638;48.820;9.244;2022-08-21T03:45:44;5.47;;;4.80;;
7193;SDS011;3638;48.820;9.244;2022-08-21T03:48:11;5.77;;;4.50;;
7193;SDS011;3638;48.820;9.244;2022-08-21T03:50:39;6.67;;;4.60;;
7193;SDS011;3638;48.820;9.244;2022-08-21T03:53:09;5.60;;;4.30;;
7193;SDS011;3638;48.820;9.244;2022-08-21T03:55:37;5.50;;;4.37;;
7193;SDS011;3638;48.820;9.244;2022-08-21T03:58:04;6.37;;;4.33;;
7193;SDS011;3638;48.820;9.244;2022-08-21T04:00:31;4.97;;;4.07;;
7193;SDS011;3638;48.820;9.244;2022-08-21T04:02:58;5.17;;;4.60;;
7193;SDS011;3638;48.820;9.244;2022-08-21T04:05:25;8.97;;;4.60;;
7193;SDS011;3638;48.820;9.244;2022-08-21T04:07:56;5.60;;;4.53;;
7193;SDS011;3638;48.820;9.244;2022-08-21T04:10:27;6.50;;;4.63;;
7193;SDS011;3638;48.820;9.244;2022-08-21T04:12:56;7.17;;;4.90;;
7193;SDS011;3638;48.820;9.244;2022-08-21T04:15:24;6.93;;;4.77;;
7193;SDS011;3638;48.820;9.244;2022-08-21T04:17:52;5.30;;;4.37;;
7193;SDS011;3638;48.820;9.244;2022-08-21T04:20:20;5.20;;;4.40;;
7193;SDS011;3638;48.820;9.244;2022-08-21T04:22:48;5.23;;;4.43;;
7193;SDS011;3638;48.820;9.244;2022-08-21T04:25:17;5.20;;;4.80;;
7193;SDS011;3638;48.820;9.244;2022-08-21T04:27:47;5.23;;;4.73;;
7193;SDS011;3638;48.820;9.244;2022-08-21T04:30:14;6.07;;;5.47;;
7193;SDS011;3638;48.820;9.244;2022-08-21T04:32:42;6.87;;;5.17;;
7193;SDS011;3638;48.820;9.244;2022-08-21T04:35:11;5.13;;;4.60;;
7193;SDS011;3638;48.820;9.244;2022-08-21T04:37:40;8.03;;;5.20;;
7193;SDS011;3638;48.820;9.244;2022-08-21T04:40:10;5.60;;;5.00;;
7193;SDS011;3638;48.820;9.244;2022-08-21T04:42:41;6.67;;;5.10;;
7193;SDS011;3638;48.820;9.244;2022-08-21T04:45:15;7.90;;;5.03;;
7193;SDS011;3638;48.820;9.244;2022-08-21T04:47:47;5.47;;;4.90;;
7193;SDS011;3638;48.820;9.244;2022-08-21T04:50:15;6.73;;;4.20;;
7193;SDS011;3638;48.820;9.244;2022-08-21T04:52:43;5.30;;;4.53;;
7193;SDS011;3638;48.820;9.244;2022-08-21T04:55:10;5.30;;;4.73;;
7193;SDS011;3638;48.820;9.244;2022-08-21T04:57:37;5.60;;;4.17;;
7193;SDS011;3638;48.820;9.244;2022-08-21T05:00:06;4.53;;;4.10;;
7193;SDS011;3638;48.820;9.244;2022-08-21T05:02:37;8.00;;;4.23;;
7193;SDS011;3638;48.820;9.244;2022-08-21T05:05:05;5.97;;;4.17;;
7193;SDS011;3638;48.820;9.244;2022-08-21T05:07:33;5.83;;;4.33;;
7193;SDS011;3638;48.820;9.244;2022-08-21T05:10:00;5.30;;;4.67;;
7193;SDS011;3638;48.820;9.244;2022-08-21T05:12:27;5.60;;;4.10;;
7193;SDS011;3638;48.820;9.244;2022-08-21T05:14:54;6.87;;;4.27;;
7193;SDS011;3638;48.820;9.244;2022-08-21T05:17:21;5.50;;;4.10;;
7193;SDS011;3638;48.820;9.244;2022-08-21T05:19:50;4.47;;;4.07;;
7193;SDS011;3638;48.820;9.244;2022-08-21T05:22:20;5.63;;;4.50;;
7193;SDS011;3638;48.820;9.244;2022-08-21T05:24:49;6.40;;;4.23;;
7193;SDS011;3638;48.820;9.244;2022-08-21T05:27:16;4.43;;;4.03;;
7193;SDS011;3638;48.820;9.244;2022-08-21T05:29:43;5.40;;;4.30;;
7193;SDS011;3638;48.820;9.244;2022-08-21T05:32:10;4.10;;;3.70;;
7193;SDS011;3638;48.820;9.244;2022-08-21T05:34:39;4.93;;;3.50;;
7193;SDS011;3638;48.820;9.244;2022-08-21T05:37:09;6.03;;;3.73;;
7193;SDS011;3638;48.820;9.244;2022-08-21T05:39:37;5.60;;;3.87;;
7193;SDS011;3638;48.820;9.244;2022-08-21T05:42:04;3.42;;;3.13;;
7193;SDS011;3638;48.820;9.244;2022-08-21T05:44:31;3.72;;;3.30;;
7193;SDS011;3638;48.820;9.244;2022-08-21T05:47:01;4.18;;;3.42;;
7193;SDS011;3638;48.820;9.244;2022-08-21T05:49:30;4.70;;;3.50;;
7193;SDS011;3638;48.820;9.244;2022-08-21T05:51:57;7.18;;;3.47;;
7193;SDS011;3638;48.820;9.244;2022-08-21T05:54:26;4.88;;;3.70;;
7193;SDS011;3638;48.820;9.244;2022-08-21T05:56:53;3.95;;;3.50;;
7193;SDS011;3638;48.820;9.244;2022-08-21T05:59:20;4.50;;;3.88;;
7193;SDS011;3638;48.820;9.244;2022-08-21T06:01:47;4.82;;;3.15;;
7193;SDS011;3638;48.820;9.244;2022-08-21T06:04:17;4.05;;;3.30;;
7193;SDS011;3638;48.820;9.244;2022-08-21T06:06:44;6.40;;;3.72;;
7193;SDS011;3638;48.820;9.244;2022-08-21T06:09:12;3.95;;;3.45;;
7193;SDS011;3638;48.820;9.244;2022-08-21T06:11:40;6.28;;;3.70;;
7193;SDS011;3638;48.820;9.244;2022-08-21T06:14:07;4.15;;;3.35;;
7193;SDS011;3638;48.820;9.244;2022-08-21T06:16:34;5.38;;;3.58;;
7193;SDS011;3638;48.820;9.244;2022-08-21T06:19:01;5.20;;;3.25;;
7193;SDS011;3638;48.820;9.244;2022-08-21T06:21:28;4.15;;;3.10;;
7193;SDS011;3638;48.820;9.244;2022-08-21T06:23:55;4.28;;;3.50;;
7193;SDS011;3638;48.820;9.244;2022-08-21T06:26:22;3.83;;;3.05;;
7193;SDS011;3638;48.820;9.244;2022-08-21T06:28:50;6.93;;;3.40;;
7193;SDS011;3638;48.820;9.244;2022-08-21T06:31:19;7.18;;;3.25;;
7193;SDS011;3638;48.820;9.244;2022-08-21T06:33:47;4.07;;;3.13;;
7193;SDS011;3638;48.820;9.244;2022-08-21T06:36:14;4.47;;;3.17;;
7193;SDS011;3638;48.820;9.244;2022-08-21T06:38:41;5.43;;;3.17;;
7193;SDS011;3638;48.820;9.244;2022-08-21T06:41:08;4.78;;;2.92;;
7193;SDS011;3638;48.820;9.244;2022-08-21T06:43:35;3.85;;;3.03;;
7193;SDS011;3638;48.820;9.244;2022-08-21T06:46:04;4.32;;;2.78;;
7193;SDS011;3638;48.820;9.244;2022-08-21T06:48:32;3.33;;;2.85;;
7193;SDS011;3638;48.820;9.244;2022-08-21T06:50:59;4.53;;;3.08;;
7193;SDS011;3638;48.820;9.244;2022-08-21T06:53:26;6.20;;;3.00;;
7193;SDS011;3638;48.820;9.244;2022-08-21T06:55:53;4.93;;;2.90;;
7193;SDS011;3638;48.820;9.244;2022-08-21T06:58:20;3.83;;;3.30;;
7193;SDS011;3638;48.820;9.244;2022-08-21T07:00:48;4.43;;;3.15;;
7193;SDS011;3638;48.820;9.244;2022-08-21T07:03:20;3.85;;;3.38;;
7193;SDS011;3638;48.820;9.244;2022-08-21T07:05:49;6.07;;;3.30;;
7193;SDS011;3638;48.820;9.244;2022-08-21T07:08:17;3.65;;;3.05;;
7193;SDS011;3638;48.820;9.244;2022-08-21T07:10:44;6.47;;;3.22;;
7193;SDS011;3638;48.820;9.244;2022-08-21T07:13:12;5.13;;;3.03;;
7193;SDS011;3638;48.820;9.244;2022-08-21T07:15:39;5.57;;;3.20;;
7193;SDS011;3638;48.820;9.244;2022-08-21T07:18:06;6.10;;;3.08;;
7193;SDS011;3638;48.820;9.244;2022-08-21T07:20:34;6.13;;;2.83;;
7193;SDS011;3638;48.820;9.244;2022-08-21T07:23:02;4.88;;;3.00;;
7193;SDS011;3638;48.820;9.244;2022-08-21T07:25:32;3.53;;;2.85;;
7193;SDS011;3638;48.820;9.244;2022-08-21T07:27:59;6.75;;;2.95;;
7193;SDS011;3638;48.820;9.244;2022-08-21T07:30:27;5.40;;;3.08;;
7193;SDS011;3638;48.820;9.244;2022-08-21T07:32:54;4.07;;;2.90;;
7193;SDS011;3638;48.820;9.244;2022-08-21T07:35:22;8.50;;;3.40;;
7193;SDS011;3638;48.820;9.244;2022-08-21T07:37:51;6.53;;;3.30;;
7193;SDS011;3638;48.820;9.244;2022-08-21T07:40:18;5.82;;;3.42;;
7193;SDS011;3638;48.820;9.244;2022-08-21T07:42:45;5.50;;;3.50;;
7193;SDS011;3638;48.820;9.244;2022-08-21T07:45:16;4.72;;;3.10;;
7193;SDS011;3638;48.820;9.244;2022-08-21T07:47:45;6.75;;;3.58;;
7193;SDS011;3638;48.820;9.244;2022-08-21T07:50:12;5.93;;;3.38;;
7193;SDS011;3638;48.820;9.244;2022-08-21T07:52:40;5.82;;;3.40;;
7193;SDS011;3638;48.820;9.244;2022-08-21T07:55:11;6.40;;;3.58;;
7193;SDS011;3638;48.820;9.244;2022-08-21T07:57:40;6.15;;;3.47;;
7193;SDS011;3638;48.820;9.244;2022-08-21T08:00:08;4.60;;;3.03;;
7193;SDS011;3638;48.820;9.244;2022-08-21T08:02:39;4.07;;;3.30;;
7193;SDS011;3638;48.820;9.244;2022-08-21T08:05:07;6.45;;;3.40;;
7193;SDS011;3638;48.820;9.244;2022-08-21T08:07:36;6.32;;;3.65;;
7193;SDS011;3638;48.820;9.244;2022-08-21T08:10:04;7.60;;;3.60;;
7193;SDS011;3638;48.820;9.244;2022-08-21T08:12:34;4.25;;;3.38;;
7193;SDS011;3638;48.820;9.244;2022-08-21T08:15:03;6.97;;;3.63;;
7193;SDS011;3638;48.820;9.244;2022-08-21T08:17:32;11.20;;;4.25;;
7193;SDS011;3638;48.820;9.244;2022-08-21T08:19:59;7.97;;;4.18;;
7193;SDS011;3638;48.820;9.244;2022-08-21T08:22:27;6.63;;;4.13;;
7193;SDS011;3638;48.820;9.244;2022-08-21T08:24:54;7.60;;;4.03;;
7193;SDS011;3638;48.820;9.244;2022-08-21T08:27:21;6.70;;;3.88;;
7193;SDS011;3638;48.820;9.244;2022-08-21T08:29:50;6.97;;;4.00;;
7193;SDS011;3638;48.820;9.244;2022-08-21T08:32:17;4.63;;;3.53;;
7193;SDS011;3638;48.820;9.244;2022-08-21T08:34:45;5.70;;;3.58;;
7193;SDS011;3638;48.820;9.244;2022-08-21T08:37:13;5.93;;;3.90;;
7193;SDS011;3638;48.820;9.244;2022-08-21T08:39:41;7.70;;;3.85;;
7193;SDS011;3638;48.820;9.244;2022-08-21T08:42:09;7.47;;;4.03;;
7193;SDS011;3638;48.820;9.244;2022-08-21T08:44:39;6.90;;;3.80;;
7193;SDS011;3638;48.820;9.244;2022-08-21T08:47:09;7.88;;;3.80;;
7193;SDS011;3638;48.820;9.244;2022-08-21T08:49:40;5.05;;;3.40;;
7193;SDS011;3638;48.820;9.244;2022-08-21T08:52:18;6.88;;;4.05;;
7193;SDS011;3638;48.820;9.244;2022-08-21T08:54:51;5.63;;;4.05;;
7193;SDS011;3638;48.820;9.244;2022-08-21T08:57:26;5.32;;;4.15;;
7193;SDS011;3638;48.820;9.244;2022-08-21T08:59:54;8.75;;;3.85;;
7193;SDS011;3638;48.820;9.244;2022-08-21T09:02:26;5.30;;;3.90;;
7193;SDS011;3638;48.820;9.244;2022-08-21T09:04:54;6.80;;;4.30;;
7193;SDS011;3638;48.820;9.244;2022-08-21T09:07:24;8.05;;;4.25;;
7193;SDS011;3638;48.820;9.244;2022-08-21T09:10:06;7.30;;;3.80;;
7193;SDS011;3638;48.820;9.244;2022-08-21T09:12:45;5.55;;;3.90;;
7193;SDS011;3638;48.820;9.244;2022-08-21T09:15:20;7.65;;;4.32;;
7193;SDS011;3638;48.820;9.244;2022-08-21T09:18:02;6.40;;;3.70;;
7193;SDS011;3638;48.820;9.244;2022-08-21T09:20:46;6.47;;;3.92;;
7193;SDS011;3638;48.820;9.244;2022-08-21T09:23:25;6.70;;;4.25;;
7193;SDS011;3638;48.820;9.244;2022-08-21T09:26:02;6.22;;;3.63;;
7193;SDS011;3638;48.820;9.244;2022-08-21T09:28:34;8.15;;;4.18;;
7193;SDS011;3638;48.820;9.244;2022-08-21T09:31:02;7.80;;;4.50;;
7193;SDS011;3638;48.820;9.244;2022-08-21T09:33:34;5.43;;;4.03;;
7193;SDS011;3638;48.820;9.244;2022-08-21T09:36:01;6.28;;;4.00;;
7193;SDS011;3638;48.820;9.244;2022-08-21T09:38:31;6.45;;;3.53;;
7193;SDS011;3638;48.820;9.244;2022-08-21T09:41:03;9.73;;;4.65;;
7193;SDS011;3638;48.820;9.244;2022-08-21T09:43:32;8.82;;;3.92;;
7193;SDS011;3638;48.820;9.244;2022-08-21T09:46:05;7.18;;;3.88;;
7193;SDS011;3638;48.820;9.244;2022-08-21T09:48:41;6.03;;;3.88;;
7193;SDS011;3638;48.820;9.244;2022-08-21T09:51:12;6.38;;;3.72;;
7193;SDS011;3638;48.820;9.244;2022-08-21T09:53:44;5.18;;;3.75;;
7193;SDS011;3638;48.820;9.244;2022-08-21T09:56:17;7.15;;;3.58;;
7193;SDS011;3638;48.820;9.244;2022-08-21T09:59:23;7.35;;;3.60;;
7193;SDS011;3638;48.820;9.244;2022-08-21T10:01:56;7.28;;;4.28;;
7193;SDS011;3638;48.820;9.244;2022-08-21T10:04:29;8.38;;;3.90;;
7193;SDS011;3638;48.820;9.244;2022-08-21T10:07:08;9.32;;;3.70;;
7193;SDS011;3638;48.820;9.244;2022-08-21T10:09:37;7.65;;;3.70;;
7193;SDS011;3638;48.820;9.244;2022-08-21T10:12:08;7.03;;;3.30;;
7193;SDS011;3638;48.820;9.244;2022-08-21T10:14:44;7.78;;;3.78;;
7193;SDS011;3638;48.820;9.244;2022-08-21T10:17:20;8.40;;;4.07;;
7193;SDS011;3638;48.820;9.244;2022-08-21T10:20:01;7.10;;;3.35;;
7193;SDS011;3638;48.820;9.244;2022-08-21T10:22:35;5.15;;;3.22;;
7193;SDS011;3638;48.820;9.244;2022-08-21T10:25:12;6.30;;;3.50;;
7193;SDS011;3638;48.820;9.244;2022-08-21T10:27:49;6.50;;;3.58;;
7193;SDS011;3638;48.820;9.244;2022-08-21T10:30:29;7.93;;;3.65;;
7193;SDS011;3638;48.820;9.244;2022-08-21T10:33:08;10.15;;;3.80;;
7193;SDS011;3638;48.820;9.244;2022-08-21T10:35:59;6.85;;;3.50;;
7193;SDS011;3638;48.820;9.244;2022-08-21T10:38:40;4.68;;;3.10;;
7193;SDS011;3638;48.820;9.244;2022-08-21T10:41:20;5.97;;;3.53;;
7193;SDS011;3638;48.820;9.244;2022-08-21T10:44:02;7.03;;;3.47;;
7193;SDS011;3638;48.820;9.244;2022-08-21T10:46:45;8.25;;;3.42;;
7193;SDS011;3638;48.820;9.244;2022-08-21T10:49:22;5.97;;;3.40;;
7193;SDS011;3638;48.820;9.244;2022-08-21T10:52:09;7.22;;;3.67;;
7193;SDS011;3638;48.820;9.244;2022-08-21T10:54:55;5.75;;;3.70;;
7193;SDS011;3638;48.820;9.244;2022-08-21T10:57:27;4.47;;;3.10;;
7193;SDS011;3638;48.820;9.244;2022-08-21T11:00:04;5.93;;;3.30;;
7193;SDS011;3638;48.820;9.244;2022-08-21T11:02:37;7.20;;;3.22;;
7193;SDS011;3638;48.820;9.244;2022-08-21T11:05:10;7.53;;;3.67;;
7193;SDS011;3638;48.820;9.244;2022-08-21T11:07:46;7.88;;;3.47;;
7193;SDS011;3638;48.820;9.244;2022-08-21T11:10:19;6.50;;;3.30;;
7193;SDS011;3638;48.820;9.244;2022-08-21T11:12:51;10.13;;;3.55;;
7193;SDS011;3638;48.820;9.244;2022-08-21T11:15:29;3.65;;;3.20;;
7193;SDS011;3638;48.820;9.244;2022-08-21T11:18:07;7.20;;;3.20;;
7193;SDS011;3638;48.820;9.244;2022-08-21T11:20:46;6.28;;;3.15;;
7193;SDS011;3638;48.820;9.244;2022-08-21T11:23:28;5.45;;;3.03;;
7193;SDS011;3638;48.820;9.244;2022-08-21T11:26:05;7.30;;;3.05;;
7193;SDS011;3638;48.820;9.244;2022-08-21T11:28:39;7.63;;;3.50;;
7193;SDS011;3638;48.820;9.244;2022-08-21T11:31:16;6.28;;;3.25;;
7193;SDS011;3638;48.820;9.244;2022-08-21T11:34:02;4.53;;;3.38;;
7193;SDS011;3638;48.820;9.244;2022-08-21T11:36:42;7.20;;;3.40;;
7193;SDS011;3638;48.820;9.244;2022-08-21T11:39:22;4.93;;;3.17;;
7193;SDS011;3638;48.820;9.244;2022-08-21T11:42:01;5.63;;;3.25;;
7193;SDS011;3638;48.820;9.244;2022-08-21T11:44:40;7.05;;;3.40;;
7193;SDS011;3638;48.820;9.244;2022-08-21T11:47:18;10.20;;;3.53;;
7193;SDS011;3638;48.820;9.244;2022-08-21T11:49:57;7.13;;;3.20;;
7193;SDS011;3638;48.820;9.244;2022-08-21T11:52:37;3.90;;;3.17;;
7193;SDS011;3638;48.820;9.244;2022-08-21T11:55:11;4.68;;;3.17;;
7193;SDS011;3638;48.820;9.244;2022-08-21T11:57:44;9.13;;;3.65;;
7193;SDS011;3638;48.820;9.244;2022-08-21T12:00:18;5.00;;;3.05;;
7193;SDS011;3638;48.820;9.244;2022-08-21T12:02:51;7.10;;;3.28;;
7193;SDS011;3638;48.820;9.244;2022-08-21T12:05:23;7.05;;;3.33;;
7193;SDS011;3638;48.820;9.244;2022-08-21T12:08:00;6.53;;;3.08;;
7193;SDS011;3638;48.820;9.244;2022-08-21T12:10:34;8.15;;;4.10;;
7193;SDS011;3638;48.820;9.244;2022-08-21T12:13:05;5.45;;;3.10;;
7193;SDS011;3638;48.820;9.244;2022-08-21T12:15:36;6.93;;;3.20;;
7193;SDS011;3638;48.820;9.244;2022-08-21T12:18:04;7.80;;;3.42;;
7193;SDS011;3638;48.820;9.244;2022-08-21T12:20:56;5.05;;;3.13;;
7193;SDS011;3638;48.820;9.244;2022-08-21T12:23:29;7.10;;;3.42;;
7193;SDS011;3638;48.820;9.244;2022-08-21T12:26:02;5.25;;;3.35;;
7193;SDS011;3638;48.820;9.244;2022-08-21T12:28:46;4.47;;;3.10;;
7193;SDS011;3638;48.820;9.244;2022-08-21T12:31:17;8.60;;;3.78;;
7193;SDS011;3638;48.820;9.244;2022-08-21T12:33:49;7.78;;;3.72;;
7193;SDS011;3638;48.820;9.244;2022-08-21T12:36:21;4.45;;;2.90;;
7193;SDS011;3638;48.820;9.244;2022-08-21T12:38:52;6.25;;;3.22;;
7193;SDS011;3638;48.820;9.244;2022-08-21T12:41:26;3.30;;;3.00;;
7193;SDS011;3638;48.820;9.244;2022-08-21T12:43:59;5.72;;;3.22;;
7193;SDS011;3638;48.820;9.244;2022-08-21T12:46:32;4.80;;;3.60;;
7193;SDS011;3638;48.820;9.244;2022-08-21T12:49:06;5.32;;;3.00;;
7193;SDS011;3638;48.820;9.244;2022-08-21T12:51:49;5.65;;;3.25;;
7193;SDS011;3638;48.820;9.244;2022-08-21T12:54:22;5.18;;;3.15;;
7193;SDS011;3638;48.820;9.244;2022-08-21T12:57:00;8.27;;;3.53;;
7193;SDS011;3638;48.820;9.244;2022-08-21T12:59:31;5.00;;;3.22;;
7193;SDS011;3638;48.820;9.244;2022-08-21T13:01:59;5.03;;;3.25;;
7193;SDS011;3638;48.820;9.244;2022-08-21T13:04:32;5.15;;;3.00;;
7193;SDS011;3638;48.820;9.244;2022-08-21T13:07:05;6.95;;;3.40;;
7193;SDS011;3638;48.820;9.244;2022-08-21T13:09:36;5.72;;;3.20;;
7193;SDS011;3638;48.820;9.244;2022-08-21T13:12:12;5.25;;;3.10;;
7193;SDS011;3638;48.820;9.244;2022-08-21T13:14:40;5.00;;;3.00;;
7193;SDS011;3638;48.820;9.244;2022-08-21T13:17:12;4.65;;;2.83;;
7193;SDS011;3638;48.820;9.244;2022-08-21T13:19:41;6.22;;;3.30;;
7193;SDS011;3638;48.820;9.244;2022-08-21T13:22:12;5.18;;;3.08;;
7193;SDS011;3638;48.820;9.244;2022-08-21T13:24:40;7.95;;;3.30;;
7193;SDS011;3638;48.820;9.244;2022-08-21T13:27:17;5.93;;;3.03;;
7193;SDS011;3638;48.820;9.244;2022-08-21T13:29:47;5.30;;;3.42;;
7193;SDS011;3638;48.820;9.244;2022-08-21T13:32:18;5.20;;;3.42;;
7193;SDS011;3638;48.820;9.244;2022-08-21T13:34:57;5.57;;;3.00;;
7193;SDS011;3638;48.820;9.244;2022-08-21T13:37:25;4.72;;;3.10;;
7193;SDS011;3638;48.820;9.244;2022-08-21T13:39:54;7.05;;;3.20;;
7193;SDS011;3638;48.820;9.244;2022-08-21T13:42:22;4.63;;;3.05;;
7193;SDS011;3638;48.820;9.244;2022-08-21T13:44:50;3.53;;;3.08;;
7193;SDS011;3638;48.820;9.244;2022-08-21T13:47:19;4.22;;;3.20;;
7193;SDS011;3638;48.820;9.244;2022-08-21T13:49:47;4.13;;;2.85;;
7193;SDS011;3638;48.820;9.244;2022-08-21T13:52:18;6.80;;;3.25;;
7193;SDS011;3638;48.820;9.244;2022-08-21T13:54:53;6.18;;;3.40;;
7193;SDS011;3638;48.820;9.244;2022-08-21T13:57:27;5.85;;;3.05;;
7193;SDS011;3638;48.820;9.244;2022-08-21T14:00:09;5.32;;;3.10;;
7193;SDS011;3638;48.820;9.244;2022-08-21T14:02:40;5.38;;;3.25;;
7193;SDS011;3638;48.820;9.244;2022-08-21T14:05:14;4.10;;;3.03;;
7193;SDS011;3638;48.820;9.244;2022-08-21T14:07:51;6.72;;;3.40;;
7193;SDS011;3638;48.820;9.244;2022-08-21T14:10:28;6.13;;;3.00;;
7193;SDS011;3638;48.820;9.244;2022-08-21T14:12:57;4.45;;;3.00;;
7193;SDS011;3638;48.820;9.244;2022-08-21T14:15:28;6.63;;;3.22;;
7193;SDS011;3638;48.820;9.244;2022-08-21T14:18:06;4.88;;;3.08;;
7193;SDS011;3638;48.820;9.244;2022-08-21T14:20:40;4.03;;;2.92;;
7193;SDS011;3638;48.820;9.244;2022-08-21T14:23:07;7.70;;;3.30;;
7193;SDS011;3638;48.820;9.244;2022-08-21T14:25:39;4.35;;;2.95;;
7193;SDS011;3638;48.820;9.244;2022-08-21T14:28:14;5.07;;;3.10;;
7193;SDS011;3638;48.820;9.244;2022-08-21T14:30:47;5.00;;;2.85;;
7193;SDS011;3638;48.820;9.244;2022-08-21T14:33:17;4.97;;;3.15;;
7193;SDS011;3638;48.820;9.244;2022-08-21T14:35:51;4.63;;;3.08;;
7193;SDS011;3638;48.820;9.244;2022-08-21T14:38:23;5.80;;;3.47;;
7193;SDS011;3638;48.820;9.244;2022-08-21T14:40:52;4.85;;;2.80;;
7193;SDS011;3638;48.820;9.244;2022-08-21T14:43:24;4.05;;;3.08;;
7193;SDS011;3638;48.820;9.244;2022-08-21T14:45:53;6.25;;;2.65;;
7193;SDS011;3638;48.820;9.244;2022-08-21T14:48:21;4.68;;;2.88;;
7193;SDS011;3638;48.820;9.244;2022-08-21T14:50:48;4.68;;;2.97;;
7193;SDS011;3638;48.820;9.244;2022-08-21T14:53:14;5.75;;;3.35;;
7193;SDS011;3638;48.820;9.244;2022-08-21T14:55:41;5.22;;;2.90;;
7193;SDS011;3638;48.820;9.244;2022-08-21T14:58:27;5.30;;;2.88;;
7193;SDS011;3638;48.820;9.244;2022-08-21T15:00:54;7.90;;;3.22;;
7193;SDS011;3638;48.820;9.244;2022-08-21T15:03:22;4.10;;;3.03;;
7193;SDS011;3638;48.820;9.244;2022-08-21T15:05:50;4.43;;;2.85;;
7193;SDS011;3638;48.820;9.244;2022-08-21T15:08:17;4.65;;;2.97;;
7193;SDS011;3638;48.820;9.244;2022-08-21T15:10:45;4.93;;;2.83;;
7193;SDS011;3638;48.820;9.244;2022-08-21T15:13:12;4.05;;;2.50;;
7193;SDS011;3638;48.820;9.244;2022-08-21T15:15:41;4.18;;;2.90;;
7193;SDS011;3638;48.820;9.244;2022-08-21T15:18:12;6.15;;;2.83;;
7193;SDS011;3638;48.820;9.244;2022-08-21T15:20:39;5.38;;;2.78;;
7193;SDS011;3638;48.820;9.244;2022-08-21T15:23:08;4.55;;;2.95;;
7193;SDS011;3638;48.820;9.244;2022-08-21T15:25:35;4.68;;;3.03;;
7193;SDS011;3638;48.820;9.244;2022-08-21T15:28:02;3.53;;;2.60;;
7193;SDS011;3638;48.820;9.244;2022-08-21T15:30:30;4.55;;;2.78;;
7193;SDS011;3638;48.820;9.244;2022-08-21T15:32:59;3.40;;;2.60;;
7193;SDS011;3638;48.820;9.244;2022-08-21T15:35:26;5.15;;;2.72;;